Time,TemperatureF,DewpointF,PressureIn,WindDirection,WindDirectionDegrees,WindSpeedMPH,WindSpeedGustMPH,Humidity,HourlyPrecipIn,Conditions,Clouds,dailyrainin,SoftwareType,DateUTC
2013-03-28 00:00:00,35.8,24.0,29.94,SW,225,4.9,5.4,62,0.00,,CLR,0.00,VWS V14.01,2013-03-28 04:00:00,
2013-03-28 00:05:00,35.8,24.4,29.97,West,270,2.2,2.7,63,0.00,,CLR,0.00,VWS V14.01,2013-03-28 04:05:00,
2013-03-28 00:10:00,35.8,24.4,29.97,WSW,248,0.0,0.0,63,0.00,,CLR,0.00,VWS V14.01,2013-03-28 04:10:00,
2013-03-28 00:16:00,35.4,24.1,29.97,SSW,202,3.1,4.0,63,0.00,,CLR,0.00,VWS V14.01,2013-03-28 04:16:00,
2013-03-28 00:21:00,35.4,24.1,29.97,SW,225,2.7,3.1,63,0.00,,CLR,0.00,VWS V14.01,2013-03-28 04:21:00,
2013-03-28 00:26:00,35.2,23.9,29.97,SW,225,4.5,4.5,63,0.00,,CLR,0.00,VWS V14.01,2013-03-28 04:26:00,
2013-03-28 00:31:00,35.1,23.8,29.94,WSW,248,4.0,4.9,63,0.00,,CLR,0.00,VWS V14.01,2013-03-28 04:31:00,
2013-03-28 00:36:00,34.9,23.6,29.94,SW,225,0.0,3.1,63,0.00,,CLR,0.00,VWS V14.01,2013-03-28 04:36:00,
2013-03-28 00:41:00,34.9,23.6,29.94,WSW,248,2.2,4.5,63,0.00,,CLR,0.00,VWS V14.01,2013-03-28 04:41:00,
2013-03-28 00:46:00,34.7,23.4,29.97,WSW,248,4.5,5.4,63,0.00,,CLR,0.00,VWS V14.01,2013-03-28 04:46:00,
2013-03-28 00:51:00,34.5,23.2,29.97,SSW,202,4.0,4.0,63,0.00,,CLR,0.00,VWS V14.01,2013-03-28 04:51:00,
2013-03-28 00:56:00,34.3,22.7,29.97,SW,225,0.0,0.0,62,0.00,,CLR,0.00,VWS V14.01,2013-03-28 04:56:00,
2013-03-28 01:01:00,34.2,22.5,29.97,SW,225,2.2,2.7,62,0.00,,CLR,0.00,VWS V14.01,2013-03-28 05:01:00,
2013-03-28 01:06:00,34.0,22.4,29.97,SW,225,0.0,0.0,62,0.00,,CLR,0.00,VWS V14.01,2013-03-28 05:06:00,
2013-03-28 01:12:00,33.8,22.2,29.97,SW,225,0.0,0.0,62,0.00,,CLR,0.00,VWS V14.01,2013-03-28 05:12:00,
2013-03-28 01:17:00,33.8,22.5,29.97,SW,225,3.1,4.0,63,0.00,,CLR,0.00,VWS V14.01,2013-03-28 05:17:00,
2013-03-28 01:22:00,33.8,22.5,29.97,SW,225,2.2,2.2,63,0.00,,CLR,0.00,VWS V14.01,2013-03-28 05:22:00,
2013-03-28 01:27:00,33.8,22.9,29.97,SW,225,2.7,4.0,64,0.00,,CLR,0.00,VWS V14.01,2013-03-28 05:27:00,
2013-03-28 01:32:00,33.8,22.9,29.97,WSW,248,0.0,0.0,64,0.00,,CLR,0.00,VWS V14.01,2013-03-28 05:32:00,
2013-03-28 01:37:00,33.8,22.5,29.97,WSW,248,0.0,0.0,63,0.00,,CLR,0.00,VWS V14.01,2013-03-28 05:37:00,
2013-03-28 01:42:00,33.8,22.5,29.97,SW,225,0.0,0.0,63,0.00,,SCT080,0.00,VWS V14.01,2013-03-28 05:42:00,
2013-03-28 01:47:00,33.8,22.9,29.97,SW,225,0.0,0.0,64,0.00,,SCT080,0.00,VWS V14.01,2013-03-28 05:47:00,
2013-03-28 01:52:00,33.8,22.5,29.97,West,270,3.1,3.1,63,0.00,,SCT080,0.00,VWS V14.01,2013-03-28 05:52:00,
2013-03-28 01:58:00,34.0,23.1,29.97,WSW,248,0.0,0.0,64,0.00,,SCT080,0.00,VWS V14.01,2013-03-28 05:58:00,
2013-03-28 02:03:00,34.3,23.8,29.97,WSW,248,0.0,2.7,65,0.00,,SCT080,0.00,VWS V14.01,2013-03-28 06:03:00,
2013-03-28 02:08:00,34.3,23.1,29.97,SW,225,0.0,0.0,63,0.00,,SCT080,0.00,VWS V14.01,2013-03-28 06:08:00,
2013-03-28 02:13:00,34.3,23.1,29.97,South,180,4.5,5.4,63,0.00,,SCT080,0.00,VWS V14.01,2013-03-28 06:13:00,
2013-03-28 02:18:00,34.5,23.2,29.97,SSW,202,0.0,0.0,63,0.00,,SCT080,0.00,VWS V14.01,2013-03-28 06:18:00,
2013-03-28 02:23:00,34.3,22.7,29.97,SSW,202,4.0,4.9,62,0.00,,SCT080,0.00,VWS V14.01,2013-03-28 06:23:00,
2013-03-28 02:28:00,34.3,22.7,29.97,SSW,202,0.0,1.8,62,0.00,,SCT080,0.00,VWS V14.01,2013-03-28 06:28:00,
2013-03-28 02:33:00,34.0,22.0,29.97,SSW,202,0.0,0.0,61,0.00,,SCT080,0.00,VWS V14.01,2013-03-28 06:33:00,
2013-03-28 02:38:00,34.0,22.0,29.97,South,180,0.0,0.0,61,0.00,,SCT080,0.00,VWS V14.01,2013-03-28 06:38:00,
2013-03-28 02:43:00,33.3,21.3,29.97,SSW,202,0.0,0.0,61,0.00,,OVC080,0.00,VWS V14.01,2013-03-28 06:43:00,
2013-03-28 02:48:00,33.1,21.5,29.97,SSW,202,0.0,0.0,62,0.00,,OVC080,0.00,VWS V14.01,2013-03-28 06:48:00,
2013-03-28 02:53:00,32.5,21.0,29.97,SW,225,0.0,0.0,62,0.00,,OVC080,0.00,VWS V14.01,2013-03-28 06:53:00,
2013-03-28 02:58:00,32.2,21.0,29.97,SW,225,0.0,0.0,63,0.00,,OVC080,0.00,VWS V14.01,2013-03-28 06:58:00,
2013-03-28 03:03:00,31.8,20.7,29.97,SW,225,0.0,0.0,63,0.00,,OVC080,0.00,VWS V14.01,2013-03-28 07:03:00,
2013-03-28 03:08:00,32.0,21.9,29.97,SSW,202,0.0,0.0,66,0.00,,OVC080,0.00,VWS V14.01,2013-03-28 07:08:00,
2013-03-28 03:13:00,32.0,22.3,29.97,SW,225,0.0,0.0,67,0.00,,OVC080,0.00,VWS V14.01,2013-03-28 07:13:00,
2013-03-28 03:18:00,32.0,23.0,29.97,SW,225,0.0,0.0,69,0.00,,OVC080,0.00,VWS V14.01,2013-03-28 07:18:00,
2013-03-28 03:23:00,32.2,23.5,29.97,SW,225,0.0,0.0,70,0.00,,OVC080,0.00,VWS V14.01,2013-03-28 07:23:00,
2013-03-28 03:28:00,32.2,23.9,29.97,WSW,248,1.8,4.9,71,0.00,,OVC080,0.00,VWS V14.01,2013-03-28 07:28:00,
2013-03-28 03:33:00,32.2,24.2,29.97,SW,225,0.0,0.0,72,0.00,,OVC080,0.00,VWS V14.01,2013-03-28 07:33:00,
2013-03-28 03:38:00,32.2,24.2,29.97,NW,315,0.0,0.0,72,0.00,,OVC080,0.00,VWS V14.01,2013-03-28 07:38:00,
2013-03-28 03:43:00,32.0,24.0,29.97,SW,225,0.0,0.0,72,0.00,,OVC075,0.00,VWS V14.01,2013-03-28 07:43:00,
2013-03-28 03:48:00,32.0,23.7,29.97,SW,225,0.0,0.0,71,0.00,,OVC075,0.00,VWS V14.01,2013-03-28 07:48:00,
2013-03-28 03:53:00,32.0,24.0,29.97,SW,225,0.0,0.0,72,0.00,,OVC075,0.00,VWS V14.01,2013-03-28 07:53:00,
2013-03-28 03:58:00,32.0,24.0,29.97,SW,225,0.0,0.0,72,0.00,,OVC075,0.00,VWS V14.01,2013-03-28 07:58:00,
2013-03-28 04:04:00,31.8,23.8,29.97,SW,225,0.0,0.0,72,0.00,,OVC075,0.00,VWS V14.01,2013-03-28 08:04:00,
2013-03-28 04:09:00,31.5,23.5,29.97,SW,225,0.0,0.0,72,0.00,,OVC075,0.00,VWS V14.01,2013-03-28 08:09:00,
2013-03-28 04:14:00,31.3,23.3,29.97,SW,225,0.0,0.0,72,0.00,,OVC075,0.00,VWS V14.01,2013-03-28 08:14:00,
2013-03-28 04:19:00,31.1,23.1,29.97,SW,225,0.0,0.0,72,0.00,,OVC075,0.00,VWS V14.01,2013-03-28 08:19:00,
2013-03-28 04:24:00,30.9,22.6,29.97,SW,225,0.0,0.0,71,0.00,,OVC075,0.00,VWS V14.01,2013-03-28 08:24:00,
2013-03-28 04:29:00,31.1,23.1,29.97,SW,225,0.0,0.0,72,0.00,,OVC075,0.00,VWS V14.01,2013-03-28 08:29:00,
2013-03-28 04:34:00,31.1,23.1,29.97,SW,225,0.0,0.0,72,0.00,,OVC075,0.00,VWS V14.01,2013-03-28 08:34:00,
2013-03-28 04:39:00,31.1,23.1,29.97,SW,225,0.0,0.0,72,0.00,,OVC075,0.00,VWS V14.01,2013-03-28 08:39:00,
2013-03-28 04:44:00,31.1,23.1,29.97,SW,225,0.0,0.0,72,0.00,,OVC065,0.00,VWS V14.01,2013-03-28 08:44:00,
2013-03-28 04:49:00,31.5,23.5,29.97,SW,225,0.0,0.0,72,0.00,,OVC065,0.00,VWS V14.01,2013-03-28 08:49:00,
2013-03-28 04:54:00,31.5,23.8,29.97,SW,225,0.0,0.0,73,0.00,,OVC065,0.00,VWS V14.01,2013-03-28 08:54:00,
2013-03-28 04:59:00,31.5,23.8,29.97,SW,225,0.0,0.0,73,0.00,,OVC065,0.00,VWS V14.01,2013-03-28 08:59:00,
2013-03-28 05:05:00,31.5,24.1,29.97,SW,225,0.0,0.0,74,0.00,,OVC065,0.00,VWS V14.01,2013-03-28 09:05:00,
2013-03-28 05:10:00,31.5,24.1,29.97,SW,225,0.0,0.0,74,0.00,,OVC065,0.00,VWS V14.01,2013-03-28 09:10:00,
2013-03-28 05:15:00,31.5,24.1,29.97,SW,225,0.0,0.0,74,0.00,,OVC065,0.00,VWS V14.01,2013-03-28 09:15:00,
2013-03-28 05:20:00,31.3,24.0,29.97,SW,225,0.0,0.0,74,0.00,,OVC065,0.00,VWS V14.01,2013-03-28 09:20:00,
2013-03-28 05:25:00,31.3,24.0,29.97,SW,225,0.0,0.0,74,0.00,,OVC065,0.00,VWS V14.01,2013-03-28 09:25:00,
2013-03-28 05:30:00,31.3,24.0,29.97,SW,225,0.0,0.0,74,0.00,,OVC065,0.00,VWS V14.01,2013-03-28 09:30:00,
2013-03-28 05:35:00,31.1,23.8,29.97,SW,225,0.0,0.0,74,0.00,,OVC065,0.00,VWS V14.01,2013-03-28 09:35:00,
2013-03-28 05:40:00,30.9,23.6,29.97,SW,225,0.0,0.0,74,0.00,,OVC065,0.00,VWS V14.01,2013-03-28 09:40:00,
2013-03-28 05:45:00,30.7,23.5,29.97,SW,225,0.0,0.0,74,0.00,,OVC075,0.00,VWS V14.01,2013-03-28 09:45:00,
2013-03-28 05:50:00,30.4,23.1,29.97,SW,225,0.0,0.0,74,0.00,,OVC075,0.00,VWS V14.01,2013-03-28 09:50:00,
2013-03-28 05:55:00,30.4,23.1,29.97,SW,225,0.0,0.0,74,0.00,,OVC075,0.00,VWS V14.01,2013-03-28 09:55:00,
2013-03-28 06:00:00,30.4,23.1,29.97,SW,225,0.0,0.0,74,0.00,,OVC075,0.00,VWS V14.01,2013-03-28 10:00:00,
2013-03-28 06:05:00,30.6,23.3,29.97,SW,225,0.0,0.0,74,0.00,,OVC075,0.00,VWS V14.01,2013-03-28 10:05:00,
2013-03-28 06:10:00,30.6,23.3,29.97,SW,225,0.0,0.0,74,0.00,,OVC075,0.00,VWS V14.01,2013-03-28 10:10:00,
2013-03-28 06:15:00,30.6,23.3,29.97,SW,225,0.0,0.0,74,0.00,,OVC075,0.00,VWS V14.01,2013-03-28 10:15:00,
2013-03-28 06:20:00,30.4,23.1,29.97,SW,225,0.0,0.0,74,0.00,,OVC075,0.00,VWS V14.01,2013-03-28 10:20:00,
2013-03-28 06:25:00,30.2,22.9,29.97,SW,225,0.0,0.0,74,0.00,,OVC075,0.00,VWS V14.01,2013-03-28 10:25:00,
2013-03-28 06:30:00,30.2,22.9,29.97,SW,225,0.0,0.0,74,0.00,,OVC075,0.00,VWS V14.01,2013-03-28 10:30:00,
2013-03-28 06:35:00,30.0,22.8,29.97,SW,225,0.0,0.0,74,0.00,,OVC075,0.00,VWS V14.01,2013-03-28 10:35:00,
2013-03-28 06:40:00,29.8,22.9,29.97,SW,225,0.0,0.0,75,0.00,,BKN075,0.00,VWS V14.01,2013-03-28 10:40:00,
2013-03-28 06:45:00,29.7,22.7,29.97,SW,225,0.0,0.0,75,0.00,,BKN075,0.00,VWS V14.01,2013-03-28 10:45:00,
2013-03-28 06:50:00,29.3,22.4,29.97,SW,225,0.0,0.0,75,0.00,,BKN075,0.00,VWS V14.01,2013-03-28 10:50:00,
2013-03-28 06:55:00,29.1,22.2,29.97,SW,225,0.0,0.0,75,0.00,,BKN075,0.00,VWS V14.01,2013-03-28 10:55:00,
2013-03-28 07:00:00,29.1,22.2,29.97,SW,225,0.0,0.0,75,0.00,,BKN075,0.00,VWS V14.01,2013-03-28 11:00:00,
2013-03-28 07:05:00,29.1,22.5,29.97,SW,225,0.0,0.0,76,0.00,,BKN075,0.00,VWS V14.01,2013-03-28 11:05:00,
2013-03-28 07:10:00,29.3,22.7,29.97,SW,225,0.0,0.0,76,0.00,,BKN075,0.00,VWS V14.01,2013-03-28 11:10:00,
2013-03-28 07:15:00,29.3,22.7,29.97,SW,225,0.0,0.0,76,0.00,,BKN075,0.00,VWS V14.01,2013-03-28 11:15:00,
2013-03-28 07:21:00,29.5,22.9,30.00,SW,225,0.0,0.0,76,0.00,,BKN075,0.00,VWS V14.01,2013-03-28 11:21:00,
2013-03-28 07:26:00,30.2,23.9,30.00,SW,225,0.0,0.0,77,0.00,,BKN075,0.00,VWS V14.01,2013-03-28 11:26:00,
2013-03-28 07:31:00,31.3,24.9,30.00,SW,225,0.0,0.0,77,0.00,,BKN075,0.00,VWS V14.01,2013-03-28 11:31:00,
2013-03-28 07:36:00,32.0,25.6,29.97,SW,225,0.0,0.0,77,0.00,,BKN075,0.00,VWS V14.01,2013-03-28 11:36:00,
2013-03-28 07:41:00,32.7,26.3,29.97,SW,225,0.0,0.0,77,0.00,,OVC080,0.00,VWS V14.01,2013-03-28 11:41:00,
2013-03-28 07:50:00,33.6,26.9,29.97,SW,225,0.0,0.0,76,0.00,,OVC080,0.00,VWS V14.01,2013-03-28 11:50:00,
2013-03-28 10:35:00,46.9,25.1,30.00,North,0,9.8,9.8,42,0.00,,OVC080,0.00,VWS V14.01,2013-03-28 14:35:00,
2013-03-28 10:42:00,46.4,24.6,30.00,NW,315,10.7,10.7,42,0.00,,OVC080,0.00,VWS V14.01,2013-03-28 14:42:00,
2013-03-28 12:34:00,49.6,28.6,30.03,West,270,7.2,9.8,44,0.00,,OVC080,0.00,VWS V14.01,2013-03-28 16:34:00,
2013-03-28 12:44:00,49.1,28.1,30.03,North,0,6.3,12.5,44,0.00,,OVC080,0.00,VWS V14.01,2013-03-28 16:44:00,
2013-03-28 14:39:00,50.2,27.4,30.03,NNE,22,6.3,6.3,41,0.00,,OVC080,0.00,VWS V14.01,2013-03-28 18:39:00,
2013-03-28 14:50:00,50.0,26.6,30.03,SW,225,4.9,5.4,40,0.00,,OVC080,0.00,VWS V14.01,2013-03-28 18:50:00,
2013-03-28 15:25:00,51.1,27.0,30.00,NNW,338,4.5,5.4,39,0.00,,OVC080,0.00,VWS V14.01,2013-03-28 19:25:00,
2013-03-28 18:20:00,45.7,25.6,30.00,WSW,248,3.1,4.5,45,0.00,,OVC080,0.00,VWS V14.01,2013-03-28 22:20:00,
2013-03-28 18:25:00,45.5,25.4,30.00,NNW,338,0.0,3.1,45,0.00,,OVC050,0.00,VWS V14.01,2013-03-28 22:25:00,
2013-03-28 18:30:00,45.3,25.8,30.00,North,0,6.7,6.7,46,0.00,,OVC050,0.00,VWS V14.01,2013-03-28 22:30:00,
2013-03-28 18:35:00,45.1,25.6,30.03,SW,225,4.5,4.5,46,0.00,,OVC050,0.00,VWS V14.01,2013-03-28 22:35:00,
2013-03-28 18:40:00,45.0,26.0,30.03,SW,225,5.4,5.4,47,0.00,,OVC050,0.00,VWS V14.01,2013-03-28 22:40:00,
2013-03-28 18:45:00,44.8,25.8,30.03,South,180,0.0,5.8,47,0.00,,OVC075,0.00,VWS V14.01,2013-03-28 22:45:00,
2013-03-28 18:50:00,44.8,25.8,30.06,SW,225,0.0,4.5,47,0.00,,OVC075,0.00,VWS V14.01,2013-03-28 22:50:00,
2013-03-28 18:55:00,44.6,25.6,30.06,NW,315,7.2,7.2,47,0.00,,OVC075,0.00,VWS V14.01,2013-03-28 22:55:00,
2013-03-28 19:00:00,44.6,26.1,30.06,NW,315,4.0,4.0,48,0.00,,OVC075,0.00,VWS V14.01,2013-03-28 23:00:00,
2013-03-28 19:05:00,44.4,26.0,30.06,WSW,248,0.0,4.9,48,0.00,,OVC075,0.00,VWS V14.01,2013-03-28 23:05:00,
2013-03-28 19:10:00,44.2,25.8,30.06,SSW,202,0.0,0.0,48,0.00,,OVC075,0.00,VWS V14.01,2013-03-28 23:10:00,
2013-03-28 19:15:00,44.2,25.8,30.06,SSW,202,2.2,6.3,48,0.00,,OVC075,0.00,VWS V14.01,2013-03-28 23:15:00,
2013-03-28 19:20:00,44.1,25.6,30.06,West,270,0.0,0.0,48,0.00,,OVC075,0.00,VWS V14.01,2013-03-28 23:20:00,
2013-03-28 19:25:00,43.9,26.0,30.06,West,270,0.0,5.4,49,0.00,,OVC075,0.00,VWS V14.01,2013-03-28 23:25:00,
2013-03-28 19:30:00,43.9,26.0,30.06,WSW,248,2.2,2.2,49,0.00,,OVC075,0.00,VWS V14.01,2013-03-28 23:30:00,
2013-03-28 19:35:00,43.7,25.8,30.06,NW,315,4.0,4.0,49,0.00,,OVC075,0.00,VWS V14.01,2013-03-28 23:35:00,
2013-03-28 19:40:00,43.7,25.8,30.06,SW,225,4.0,4.0,49,0.00,,OVC065,0.00,VWS V14.01,2013-03-28 23:40:00,
2013-03-28 19:45:00,43.5,26.1,30.06,WSW,248,4.0,4.0,50,0.00,,OVC065,0.00,VWS V14.01,2013-03-28 23:45:00,
2013-03-28 19:50:00,43.5,25.6,30.06,NW,315,0.0,0.0,49,0.00,,OVC065,0.00,VWS V14.01,2013-03-28 23:50:00,
2013-03-28 19:55:00,43.3,26.0,30.06,WSW,248,0.0,1.8,50,0.00,,OVC065,0.00,VWS V14.01,2013-03-28 23:55:00,
2013-03-28 20:00:00,43.2,25.8,30.06,WSW,248,2.2,2.2,50,0.00,,OVC065,0.00,VWS V14.01,2013-03-29 00:00:00,
2013-03-28 20:05:00,42.8,25.5,30.09,WNW,292,0.0,0.0,50,0.00,,OVC065,0.00,VWS V14.01,2013-03-29 00:05:00,
2013-03-28 20:10:00,42.3,25.4,30.09,WSW,248,0.0,0.0,51,0.00,,BKN070,0.00,VWS V14.01,2013-03-29 00:10:00,
2013-03-28 20:15:00,41.9,24.6,30.09,WSW,248,2.7,2.7,50,0.00,,BKN070,0.00,VWS V14.01,2013-03-29 00:15:00,
2013-03-28 20:20:00,41.7,24.9,30.09,SW,225,2.2,3.1,51,0.00,,BKN070,0.00,VWS V14.01,2013-03-29 00:20:00,
2013-03-28 20:25:00,41.5,24.8,30.09,SW,225,0.0,0.0,51,0.00,,BKN070,0.00,VWS V14.01,2013-03-29 00:25:00,
2013-03-28 20:30:00,41.2,24.9,30.09,SW,225,2.2,2.2,52,0.00,,BKN070,0.00,VWS V14.01,2013-03-29 00:30:00,
2013-03-28 20:35:00,41.0,24.7,30.09,SW,225,1.8,2.7,52,0.00,,BKN070,0.00,VWS V14.01,2013-03-29 00:35:00,
2013-03-28 20:40:00,40.5,24.2,30.09,SW,225,0.0,0.0,52,0.00,,BKN070,0.00,VWS V14.01,2013-03-29 00:40:00,
2013-03-28 20:46:00,40.5,25.1,30.09,SSW,202,4.0,6.3,54,0.00,,BKN070,0.00,VWS V14.01,2013-03-29 00:46:00,
2013-03-28 20:51:00,40.3,25.0,30.09,SW,225,4.0,4.0,54,0.00,,BKN070,0.00,VWS V14.01,2013-03-29 00:51:00,
2013-03-28 20:56:00,40.1,24.8,30.09,SW,225,2.7,2.7,54,0.00,,BKN070,0.00,VWS V14.01,2013-03-29 00:56:00,
2013-03-28 21:02:00,39.9,25.1,30.09,SSW,202,3.1,3.1,55,0.00,,BKN070,0.00,VWS V14.01,2013-03-29 01:02:00,
2013-03-28 21:07:00,39.6,24.3,30.09,SSW,202,0.0,0.0,54,0.00,,BKN070,0.00,VWS V14.01,2013-03-29 01:07:00,
2013-03-28 21:12:00,39.4,24.1,30.09,South,180,0.0,0.0,54,0.00,,BKN070,0.00,VWS V14.01,2013-03-29 01:12:00,
2013-03-28 21:17:00,39.4,24.6,30.09,SSW,202,1.8,2.2,55,0.00,,BKN070,0.00,VWS V14.01,2013-03-29 01:17:00,
2013-03-28 21:22:00,39.2,24.4,30.09,WSW,248,0.0,0.0,55,0.00,,BKN070,0.00,VWS V14.01,2013-03-29 01:22:00,
2013-03-28 21:27:00,39.4,24.6,30.09,SW,225,0.0,0.0,55,0.00,,BKN070,0.00,VWS V14.01,2013-03-29 01:27:00,
2013-03-28 21:32:00,39.7,24.9,30.09,WSW,248,0.0,0.0,55,0.00,,BKN070,0.00,VWS V14.01,2013-03-29 01:32:00,
2013-03-28 21:37:00,39.7,24.9,30.09,SW,225,2.2,2.2,55,0.00,,BKN070,0.00,VWS V14.01,2013-03-29 01:37:00,
2013-03-28 21:42:00,39.9,25.1,30.09,SW,225,0.0,0.0,55,0.00,,OVC075,0.00,VWS V14.01,2013-03-29 01:42:00,
2013-03-28 21:47:00,40.1,25.2,30.09,WSW,248,0.0,0.0,55,0.00,,OVC075,0.00,VWS V14.01,2013-03-29 01:47:00,
2013-03-28 21:52:00,40.3,25.4,30.09,SW,225,0.0,2.7,55,0.00,,OVC075,0.00,VWS V14.01,2013-03-29 01:52:00,
2013-03-28 21:58:00,40.3,25.4,30.09,SW,225,0.0,0.0,55,0.00,,OVC075,0.00,VWS V14.01,2013-03-29 01:58:00,
2013-03-28 22:03:00,40.5,25.6,30.09,SW,225,4.5,4.5,55,0.00,,OVC075,0.00,VWS V14.01,2013-03-29 02:03:00,
2013-03-28 22:08:00,40.8,25.9,30.09,WSW,248,1.8,2.7,55,0.00,,OVC075,0.00,VWS V14.01,2013-03-29 02:08:00,
2013-03-28 22:13:00,41.2,25.8,30.09,SW,225,0.0,0.0,54,0.00,,OVC075,0.00,VWS V14.01,2013-03-29 02:13:00,
2013-03-28 22:18:00,41.2,25.8,30.09,WNW,292,1.8,2.2,54,0.00,,OVC075,0.00,VWS V14.01,2013-03-29 02:18:00,
2013-03-28 22:23:00,41.5,25.7,30.09,SW,225,0.0,0.0,53,0.00,,OVC075,0.00,VWS V14.01,2013-03-29 02:23:00,
2013-03-28 22:28:00,41.7,25.9,30.09,WSW,248,0.0,2.7,53,0.00,,OVC075,0.00,VWS V14.01,2013-03-29 02:28:00,
2013-03-28 22:33:00,41.7,25.9,30.09,WSW,248,0.0,0.0,53,0.00,,OVC075,0.00,VWS V14.01,2013-03-29 02:33:00,
2013-03-28 22:38:00,41.9,25.6,30.09,WSW,248,0.0,0.0,52,0.00,,OVC075,0.00,VWS V14.01,2013-03-29 02:38:00,
2013-03-28 22:43:00,41.9,25.6,30.09,WNW,292,0.0,4.0,52,0.00,,OVC080,0.00,VWS V14.01,2013-03-29 02:43:00,
2013-03-28 22:48:00,41.9,25.6,30.09,WSW,248,0.0,4.9,52,0.00,,OVC080,0.00,VWS V14.01,2013-03-29 02:48:00,
2013-03-28 22:53:00,42.1,25.7,30.09,West,270,3.1,11.2,52,0.00,,OVC080,0.00,VWS V14.01,2013-03-29 02:53:00,
2013-03-28 22:58:00,42.3,25.4,30.09,WNW,292,4.9,5.4,51,0.00,,OVC080,0.00,VWS V14.01,2013-03-29 02:58:00,
2013-03-28 23:03:00,42.3,25.4,30.06,NNW,338,3.1,5.8,51,0.00,,OVC080,0.00,VWS V14.01,2013-03-29 03:03:00,
2013-03-28 23:08:00,42.3,25.4,30.06,NW,315,4.0,4.0,51,0.00,,OVC080,0.00,VWS V14.01,2013-03-29 03:08:00,
2013-03-28 23:13:00,42.1,25.3,30.06,WNW,292,4.0,6.3,51,0.00,,OVC080,0.00,VWS V14.01,2013-03-29 03:13:00,
2013-03-28 23:18:00,42.1,25.3,30.09,West,270,2.7,2.7,51,0.00,,OVC080,0.00,VWS V14.01,2013-03-29 03:18:00,
2013-03-28 23:23:00,42.1,25.3,30.09,SW,225,2.2,4.9,51,0.00,,OVC080,0.00,VWS V14.01,2013-03-29 03:23:00,
2013-03-28 23:28:00,42.3,25.0,30.09,SW,225,0.0,0.0,50,0.00,,OVC080,0.00,VWS V14.01,2013-03-29 03:28:00,
2013-03-28 23:33:00,42.3,25.0,30.09,WNW,292,0.0,0.0,50,0.00,,OVC080,0.00,VWS V14.01,2013-03-29 03:33:00,
2013-03-28 23:38:00,42.1,24.8,30.09,West,270,4.0,6.3,50,0.00,,OVC080,0.00,VWS V14.01,2013-03-29 03:38:00,
2013-03-28 23:43:00,41.9,24.6,30.09,NW,315,0.0,0.0,50,0.00,,OVC080,0.00,VWS V14.01,2013-03-29 03:43:00,
2013-03-28 23:48:00,41.9,24.6,30.09,SW,225,2.2,2.2,50,0.00,,OVC080,0.00,VWS V14.01,2013-03-29 03:48:00,
2013-03-28 23:53:00,41.9,24.6,30.09,SW,225,0.0,0.0,50,0.00,,OVC080,0.00,VWS V14.01,2013-03-29 03:53:00,
2013-03-28 23:58:00,41.9,24.6,30.09,West,270,0.0,2.7,50,0.00,,OVC080,0.00,VWS V14.01,2013-03-29 03:58:00,